Time;durP1;ratioP1;P1;durP2;ratioP2;P2;SDS_P1;SDS_P2;PMS_P1;PMS_P2;Temp;Humidity;BMP_temperature;BMP_pressure;BME280_temperature;BME280_humidity;BME280_pressure;Samples;Min_cycle;Max_cycle;Signal;HPM_P1;HPM_P2
2023/11/06 00:01:44;;;;;;;2.28;0.80;;;12.40;99.90;;;;;;5004212;28;20030;-69
2023/11/06 00:04:10;;;;;;;2.53;0.90;;;12.40;99.90;;;;;;5004896;28;20540;-69
2023/11/06 00:06:36;;;;;;;1.20;0.80;;;12.50;99.90;;;;;;5006012;28;20041;-68
2023/11/06 00:09:04;;;;;;;3.45;0.90;;;12.60;99.90;;;;;;5001034;28;20057;-69
2023/11/06 00:11:30;;;;;;;7.82;1.00;;;12.60;99.90;;;;;;5002432;28;20034;-68
2023/11/06 00:13:55;;;;;;;2.50;1.00;;;12.50;99.90;;;;;;4997456;28;20073;-68
2023/11/06 00:16:22;;;;;;;3.50;0.90;;;12.40;99.90;;;;;;5004300;28;20038;-69
2023/11/06 00:18:47;;;;;;;8.75;1.45;;;12.40;99.90;;;;;;5002610;28;20033;-68
2023/11/06 00:21:14;;;;;;;0.90;0.65;;;12.40;99.90;;;;;;5004427;28;20033;-68
2023/11/06 00:23:40;;;;;;;2.08;0.70;;;12.40;99.90;;;;;;5003824;28;20129;-68
2023/11/06 00:26:06;;;;;;;3.83;0.93;;;12.40;99.90;;;;;;5004248;28;20037;-68
2023/11/06 00:28:32;;;;;;;4.22;0.68;;;12.40;99.90;;;;;;5004166;28;20041;-68
2023/11/06 00:30:58;;;;;;;2.50;0.70;;;12.40;99.90;;;;;;4996265;28;20072;-69
2023/11/06 00:33:24;;;;;;;1.83;0.70;;;12.20;99.90;;;;;;5006596;28;20065;-68
2023/11/06 00:35:50;;;;;;;1.80;1.02;;;12.10;99.90;;;;;;5008115;28;20042;-69
2023/11/06 00:38:16;;;;;;;3.03;0.85;;;12.00;99.90;;;;;;5008314;28;20026;-68
2023/11/06 00:40:42;;;;;;;2.80;0.80;;;12.00;99.90;;;;;;5006176;28;20109;-68
2023/11/06 00:43:08;;;;;;;2.80;0.95;;;11.90;99.90;;;;;;5006277;28;20030;-68
2023/11/06 00:45:34;;;;;;;1.85;0.80;;;11.80;99.90;;;;;;5008171;28;20405;-68
2023/11/06 00:48:00;;;;;;;2.65;0.70;;;11.80;99.90;;;;;;5007866;28;20185;-69
2023/11/06 00:50:25;;;;;;;2.90;0.70;;;11.80;99.90;;;;;;5006818;28;20018;-69
2023/11/06 00:52:51;;;;;;;1.02;0.70;;;11.90;99.90;;;;;;5005895;28;20104;-68
2023/11/06 00:55:17;;;;;;;2.88;1.00;;;11.90;99.90;;;;;;5007804;28;20030;-69
2023/11/06 00:57:46;;;;;;;4.80;0.90;;;11.60;99.90;;;;;;5006168;28;20053;-68
2023/11/06 01:00:15;;;;;;;3.13;0.75;;;11.50;99.90;;;;;;5006418;28;20032;-68
2023/11/06 01:02:42;;;;;;;1.20;0.80;;;11.30;99.90;;;;;;5007393;28;20033;-68
2023/11/06 01:05:08;;;;;;;0.93;0.77;;;11.30;99.90;;;;;;5005874;28;20805;-68
2023/11/06 01:07:33;;;;;;;3.70;1.17;;;11.40;99.90;;;;;;5004024;28;20033;-68
2023/11/06 01:09:59;;;;;;;1.75;1.02;;;11.50;99.90;;;;;;5007570;28;20037;-68
2023/11/06 01:12:25;;;;;;;1.98;0.63;;;11.60;99.90;;;;;;5007329;28;20030;-68
2023/11/06 01:14:51;;;;;;;5.20;1.15;;;11.50;99.90;;;;;;5006266;28;20096;-68
2023/11/06 01:17:17;;;;;;;3.08;0.80;;;11.60;99.90;;;;;;5007569;28;20034;-68
2023/11/06 01:19:43;;;;;;;3.85;0.90;;;11.60;99.90;;;;;;5007460;28;20025;-68
2023/11/06 01:22:09;;;;;;;3.90;0.70;;;11.70;99.90;;;;;;5005340;28;20034;-69
2023/11/06 01:24:34;;;;;;;1.80;0.70;;;11.60;99.90;;;;;;5005593;28;20104;-69
2023/11/06 01:27:00;;;;;;;2.95;0.80;;;11.70;99.90;;;;;;5005745;28;20391;-68
2023/11/06 01:29:27;;;;;;;2.97;0.90;;;11.70;99.90;;;;;;5007277;28;20029;-68
2023/11/06 01:31:53;;;;;;;3.17;0.75;;;11.70;99.90;;;;;;5007229;28;20081;-69
2023/11/06 01:34:18;;;;;;;4.22;0.93;;;11.80;99.90;;;;;;5007122;28;20062;-68
2023/11/06 01:36:44;;;;;;;2.13;0.98;;;11.90;99.90;;;;;;5005753;28;20041;-68
2023/11/06 01:39:11;;;;;;;1.17;0.75;;;12.00;99.90;;;;;;5007357;28;20025;-69
2023/11/06 01:41:38;;;;;;;2.65;1.30;;;11.90;99.90;;;;;;5006989;28;20030;-67
2023/11/06 01:44:06;;;;;;;1.55;0.90;;;11.90;99.90;;;;;;4987977;28;20041;-68
2023/11/06 01:46:34;;;;;;;1.63;0.50;;;11.90;99.90;;;;;;5007014;28;20036;-68
2023/11/06 01:49:01;;;;;;;2.70;0.90;;;12.00;99.90;;;;;;5006735;28;20034;-68
2023/11/06 01:51:29;;;;;;;1.20;1.10;;;12.10;99.90;;;;;;5005190;28;20048;-68
2023/11/06 01:53:55;;;;;;;1.20;0.70;;;12.00;99.90;;;;;;5000167;28;20418;-68
2023/11/06 01:56:21;;;;;;;2.35;0.70;;;12.00;99.90;;;;;;5004982;28;20026;-68
2023/11/06 01:58:47;;;;;;;1.17;0.65;;;12.00;99.90;;;;;;5007161;28;20176;-68
2023/11/06 02:01:13;;;;;;;1.27;0.80;;;11.90;99.90;;;;;;5005230;28;20145;-68
2023/11/06 02:03:42;;;;;;;3.75;0.80;;;11.90;99.90;;;;;;5006485;28;20030;-68
2023/11/06 02:06:08;;;;;;;5.20;0.80;;;11.80;99.90;;;;;;5005361;28;20037;-68
2023/11/06 02:08:34;;;;;;;2.60;0.90;;;11.80;99.90;;;;;;5006321;28;20120;-68
2023/11/06 02:11:02;;;;;;;2.03;0.80;;;11.80;99.90;;;;;;5005101;28;20034;-69
2023/11/06 02:13:28;;;;;;;3.75;0.75;;;11.90;99.90;;;;;;5002801;28;20510;-68
2023/11/06 02:15:54;;;;;;;4.13;0.70;;;12.00;99.90;;;;;;5018748;28;20033;-68
2023/11/06 02:18:24;;;;;;;4.28;0.57;;;12.00;99.90;;;;;;5004885;28;20033;-68
2023/11/06 02:20:54;;;;;;;2.28;0.73;;;12.00;99.90;;;;;;5021308;28;20037;-68
2023/11/06 02:23:31;;;;;;;3.08;0.93;;;12.00;99.90;;;;;;5004937;28;20038;-68
2023/11/06 02:25:56;;;;;;;2.20;0.80;;;11.90;99.90;;;;;;5004692;28;20038;-68
2023/11/06 02:28:23;;;;;;;2.50;0.80;;;11.80;99.90;;;;;;5005214;28;20052;-68
2023/11/06 02:30:52;;;;;;;1.60;0.63;;;11.70;99.90;;;;;;5006135;28;20451;-68
2023/11/06 02:33:19;;;;;;;0.73;0.52;;;11.60;99.90;;;;;;5004331;28;20021;-68
2023/11/06 02:35:45;;;;;;;0.98;0.75;;;11.50;99.90;;;;;;5004180;28;20585;-68
2023/11/06 02:38:11;;;;;;;2.60;0.80;;;11.60;99.90;;;;;;5002266;28;20030;-68
2023/11/06 02:40:37;;;;;;;5.18;1.58;;;11.60;99.90;;;;;;5005088;28;20080;-68
2023/11/06 02:43:03;;;;;;;1.58;0.70;;;11.70;99.90;;;;;;5006687;28;20026;-68
2023/11/06 02:45:29;;;;;;;2.65;0.90;;;11.70;99.90;;;;;;5006507;28;20056;-68
2023/11/06 02:47:55;;;;;;;2.28;0.60;;;11.60;99.90;;;;;;5006893;28;20196;-68
2023/11/06 02:50:21;;;;;;;1.20;0.80;;;11.40;99.90;;;;;;5005061;28;20073;-68
2023/11/06 02:52:48;;;;;;;2.65;0.90;;;11.50;99.90;;;;;;5005582;28;20037;-68
2023/11/06 02:55:14;;;;;;;4.10;0.60;;;11.40;99.90;;;;;;5004786;28;20068;-68
2023/11/06 02:57:40;;;;;;;3.35;0.70;;;11.40;99.90;;;;;;5004025;28;20112;-68
2023/11/06 03:00:06;;;;;;;4.55;1.00;;;11.40;99.90;;;;;;5003686;28;20045;-68
2023/11/06 03:02:36;;;;;;;2.80;0.70;;;11.40;99.90;;;;;;5004496;28;20120;-69
2023/11/06 03:05:06;;;;;;;0.75;0.70;;;11.40;99.90;;;;;;5004508;28;20160;-68
2023/11/06 03:07:32;;;;;;;4.22;0.65;;;11.40;99.90;;;;;;5001374;28;20494;-69
2023/11/06 03:09:58;;;;;;;2.78;0.88;;;11.40;99.90;;;;;;5002088;28;20649;-68
2023/11/06 03:12:24;;;;;;;2.78;0.70;;;11.40;99.90;;;;;;5003533;28;20034;-68
2023/11/06 03:14:50;;;;;;;6.72;0.63;;;11.40;99.90;;;;;;5001875;28;20120;-68
2023/11/06 03:17:16;;;;;;;2.47;0.85;;;11.40;99.90;;;;;;5004017;28;20117;-68
2023/11/06 03:19:41;;;;;;;3.75;1.02;;;11.40;99.90;;;;;;4990752;28;20034;-68
2023/11/06 03:22:07;;;;;;;0.70;0.70;;;11.40;99.90;;;;;;5019361;28;20764;-68
2023/11/06 03:24:33;;;;;;;4.10;0.73;;;11.40;99.90;;;;;;5003690;28;20026;-68
2023/11/06 03:26:59;;;;;;;1.98;0.68;;;11.40;99.90;;;;;;5003732;28;20041;-68
2023/11/06 03:29:25;;;;;;;2.83;0.50;;;11.40;99.90;;;;;;4995204;28;20025;-69
2023/11/06 03:31:54;;;;;;;3.65;0.55;;;11.40;99.90;;;;;;5003296;28;20064;-68
2023/11/06 03:34:20;;;;;;;2.38;0.70;;;11.40;99.90;;;;;;5003210;28;20026;-68
2023/11/06 03:36:45;;;;;;;2.65;1.20;;;11.40;99.90;;;;;;4999876;28;20685;-68
2023/11/06 03:39:12;;;;;;;1.90;0.70;;;11.30;99.90;;;;;;4997712;28;20033;-68
2023/11/06 03:41:38;;;;;;;2.35;0.63;;;11.10;99.90;;;;;;5003695;28;20869;-68
2023/11/06 03:44:05;;;;;;;2.17;1.55;;;11.10;99.90;;;;;;5001719;28;20042;-68
2023/11/06 03:46:31;;;;;;;4.10;0.63;;;11.20;99.90;;;;;;4997878;28;20030;-68
2023/11/06 03:48:57;;;;;;;1.92;0.50;;;11.20;99.90;;;;;;5004087;28;20096;-68
2023/11/06 03:51:23;;;;;;;3.35;0.98;;;11.10;99.90;;;;;;5003088;28;20126;-68
2023/11/06 03:53:49;;;;;;;0.95;0.60;;;11.10;99.90;;;;;;5003501;28;20494;-68
2023/11/06 03:56:15;;;;;;;3.15;0.68;;;11.10;99.90;;;;;;5004624;28;20111;-68
2023/11/06 03:58:41;;;;;;;4.13;0.93;;;11.10;99.90;;;;;;5003759;28;20040;-68
2023/11/06 04:01:08;;;;;;;1.67;0.75;;;11.10;99.90;;;;;;5002584;28;20033;-68
2023/11/06 04:03:33;;;;;;;2.60;0.70;;;11.00;99.90;;;;;;5004258;28;20759;-68
2023/11/06 04:06:00;;;;;;;0.98;0.60;;;11.00;99.90;;;;;;5000259;28;20038;-68
2023/11/06 04:08:26;;;;;;;0.45;0.45;;;10.90;99.90;;;;;;5003666;28;20053;-68
2023/11/06 04:10:52;;;;;;;1.05;0.70;;;10.90;99.90;;;;;;5004264;28;20478;-68
2023/11/06 04:13:17;;;;;;;0.80;0.50;;;10.90;99.90;;;;;;5004530;28;20041;-69
2023/11/06 04:15:44;;;;;;;1.85;0.60;;;10.90;99.90;;;;;;4996118;28;20065;-68
2023/11/06 04:18:10;;;;;;;1.73;0.57;;;10.80;99.90;;;;;;5003480;28;20050;-66
2023/11/06 04:20:36;;;;;;;1.33;0.90;;;10.80;99.90;;;;;;5003385;28;20755;-67
2023/11/06 04:23:02;;;;;;;4.05;0.90;;;10.90;99.90;;;;;;4998773;28;20061;-67
2023/11/06 04:25:28;;;;;;;0.70;0.60;;;10.80;99.90;;;;;;5000598;28;20417;-67
2023/11/06 04:27:54;;;;;;;3.20;0.93;;;10.80;99.90;;;;;;5003223;28;20037;-67
2023/11/06 04:30:20;;;;;;;0.93;0.57;;;10.80;99.90;;;;;;5004099;28;20070;-67
2023/11/06 04:32:45;;;;;;;1.35;0.70;;;10.80;99.90;;;;;;5003653;28;20077;-67
2023/11/06 04:35:11;;;;;;;2.95;0.88;;;10.80;99.90;;;;;;5003801;28;20038;-67
2023/11/06 04:37:37;;;;;;;3.40;0.60;;;10.90;99.90;;;;;;5002466;28;20106;-67
2023/11/06 04:40:06;;;;;;;1.65;0.85;;;10.80;99.90;;;;;;5001446;28;20120;-68
2023/11/06 04:42:33;;;;;;;1.10;0.40;;;10.80;99.90;;;;;;5002842;28;20072;-67
2023/11/06 04:44:58;;;;;;;2.00;0.73;;;11.00;99.90;;;;;;4997829;28;20034;-67
2023/11/06 04:47:25;;;;;;;0.73;0.43;;;11.10;99.90;;;;;;5001184;28;20044;-67
2023/11/06 04:49:51;;;;;;;2.10;0.88;;;11.30;99.90;;;;;;4999095;28;20086;-67
2023/11/06 04:52:17;;;;;;;1.98;0.50;;;11.30;99.90;;;;;;5004633;28;20034;-67
2023/11/06 04:54:42;;;;;;;2.53;1.00;;;11.30;99.90;;;;;;4992006;28;20034;-67
2023/11/06 04:57:09;;;;;;;3.17;0.73;;;11.30;99.90;;;;;;5001093;28;20562;-67
2023/11/06 04:59:36;;;;;;;4.57;0.60;;;11.30;99.90;;;;;;4997888;28;20038;-67
2023/11/06 05:02:02;;;;;;;1.10;0.40;;;11.40;99.90;;;;;;4999878;28;20498;-66
2023/11/06 05:04:28;;;;;;;2.22;1.15;;;11.40;99.90;;;;;;5003288;28;20026;-67
2023/11/06 05:06:55;;;;;;;1.70;0.60;;;11.40;99.90;;;;;;5003681;28;20076;-67
2023/11/06 05:09:21;;;;;;;2.45;0.60;;;11.30;99.90;;;;;;4993550;28;20460;-67
2023/11/06 05:11:46;;;;;;;3.08;1.23;;;11.30;99.90;;;;;;5003716;28;20034;-67
2023/11/06 05:14:12;;;;;;;2.38;0.73;;;11.30;99.90;;;;;;5003457;28;20049;-67
2023/11/06 05:16:38;;;;;;;2.10;0.63;;;11.30;99.90;;;;;;5002620;28;20118;-67
2023/11/06 05:19:04;;;;;;;2.05;0.60;;;11.30;99.90;;;;;;5002466;28;20061;-67
2023/11/06 05:21:31;;;;;;;2.65;0.70;;;11.10;99.90;;;;;;5006415;28;20101;-67
2023/11/06 05:23:57;;;;;;;5.25;1.10;;;11.10;99.90;;;;;;5003417;28;20081;-67
2023/11/06 05:26:23;;;;;;;3.45;0.50;;;11.10;99.90;;;;;;5006277;28;20034;-67
2023/11/06 05:28:48;;;;;;;0.93;0.60;;;11.10;99.90;;;;;;5006752;28;20026;-67
2023/11/06 05:31:15;;;;;;;3.45;0.52;;;11.10;99.90;;;;;;5002352;28;20046;-67
2023/11/06 05:33:41;;;;;;;3.63;0.85;;;11.20;99.90;;;;;;4995905;28;20033;-67
2023/11/06 05:36:07;;;;;;;1.52;0.55;;;11.20;99.90;;;;;;5004992;28;20040;-67
2023/11/06 05:38:33;;;;;;;3.58;0.50;;;11.30;99.90;;;;;;5006284;28;20041;-67
2023/11/06 05:40:59;;;;;;;5.78;0.82;;;11.30;99.90;;;;;;4999638;28;20037;-67
2023/11/06 05:43:25;;;;;;;1.17;0.47;;;11.30;99.90;;;;;;5001841;28;20026;-67
2023/11/06 05:45:50;;;;;;;4.03;0.73;;;11.40;99.90;;;;;;5002125;28;20615;-67
2023/11/06 05:48:17;;;;;;;3.00;0.52;;;11.50;99.90;;;;;;5003751;28;20763;-67
2023/11/06 05:50:43;;;;;;;1.55;0.43;;;11.60;99.90;;;;;;4997646;28;20562;-68
2023/11/06 05:53:09;;;;;;;0.75;0.50;;;11.60;99.90;;;;;;5004446;28;20034;-67
2023/11/06 05:55:35;;;;;;;1.70;0.50;;;11.60;99.90;;;;;;5007184;28;20036;-67
2023/11/06 05:58:01;;;;;;;2.45;0.63;;;11.60;99.90;;;;;;5005896;28;20076;-67
2023/11/06 06:00:27;;;;;;;3.05;0.63;;;11.50;99.90;;;;;;5006535;28;20108;-67
2023/11/06 06:02:52;;;;;;;4.07;0.43;;;11.50;99.90;;;;;;5006494;28;20113;-68
2023/11/06 06:05:18;;;;;;;5.82;0.73;;;11.50;99.90;;;;;;5005821;28;20813;-67
2023/11/06 06:07:44;;;;;;;2.63;0.70;;;11.50;99.90;;;;;;5000581;28;20029;-67
2023/11/06 06:10:12;;;;;;;3.40;0.65;;;11.40;99.90;;;;;;5000770;28;20761;-67
2023/11/06 06:12:38;;;;;;;2.15;0.40;;;11.40;99.90;;;;;;5005123;28;20552;-68
2023/11/06 06:15:05;;;;;;;2.70;0.40;;;11.30;99.90;;;;;;5005219;28;20081;-68
2023/11/06 06:17:31;;;;;;;2.60;0.60;;;11.30;99.90;;;;;;5004512;28;20114;-67
2023/11/06 06:19:57;;;;;;;0.98;0.47;;;11.30;99.90;;;;;;5004227;28;20086;-67
2023/11/06 06:22:22;;;;;;;1.52;0.40;;;11.20;99.90;;;;;;5000619;28;20759;-67
2023/11/06 06:24:48;;;;;;;1.77;0.63;;;11.20;99.90;;;;;;5004212;28;20030;-68
2023/11/06 06:27:14;;;;;;;3.90;0.52;;;11.30;99.90;;;;;;5006387;28;20044;-67
2023/11/06 06:29:40;;;;;;;2.97;0.70;;;11.40;99.90;;;;;;5005795;28;20835;-66
2023/11/06 06:32:06;;;;;;;2.90;0.38;;;11.50;99.90;;;;;;5006128;28;20045;-67
2023/11/06 06:34:32;;;;;;;1.08;0.38;;;11.60;99.90;;;;;;5001985;28;20038;-67
2023/11/06 06:36:58;;;;;;;3.65;0.50;;;11.60;99.90;;;;;;5005884;28;20049;-67
2023/11/06 06:39:24;;;;;;;4.25;0.55;;;11.50;99.90;;;;;;5006258;28;20026;-67
2023/11/06 06:41:49;;;;;;;3.60;1.25;;;11.50;99.90;;;;;;5005612;28;20172;-67
2023/11/06 06:44:15;;;;;;;4.85;0.57;;;11.40;99.90;;;;;;5005668;28;20068;-67
2023/11/06 06:46:41;;;;;;;5.57;0.52;;;11.40;99.90;;;;;;5005427;28;20038;-67
2023/11/06 06:49:07;;;;;;;3.08;0.30;;;11.30;99.90;;;;;;5004528;28;20064;-67
2023/11/06 06:51:33;;;;;;;1.98;0.45;;;11.20;99.90;;;;;;5005098;28;20034;-67
2023/11/06 06:53:58;;;;;;;0.70;0.40;;;11.10;99.90;;;;;;5005472;28;20124;-67
2023/11/06 06:56:24;;;;;;;1.67;0.47;;;11.10;99.90;;;;;;5005331;28;20057;-67
2023/11/06 06:58:50;;;;;;;5.47;0.60;;;11.10;99.90;;;;;;5001272;28;20548;-67
2023/11/06 07:01:17;;;;;;;1.33;0.65;;;11.10;99.90;;;;;;5003920;28;20375;-67
2023/11/06 07:03:43;;;;;;;2.58;0.47;;;11.20;99.90;;;;;;5005577;28;20148;-67
2023/11/06 07:06:14;;;;;;;3.17;0.70;;;11.30;99.90;;;;;;5005477;28;20053;-67
2023/11/06 07:08:40;;;;;;;3.70;0.75;;;11.30;99.90;;;;;;5004184;28;20708;-67
2023/11/06 07:11:06;;;;;;;2.17;0.60;;;11.20;99.90;;;;;;4998091;28;20041;-67
2023/11/06 07:13:32;;;;;;;2.55;0.35;;;11.10;99.90;;;;;;5005190;28;20546;-67
2023/11/06 07:15:57;;;;;;;1.17;0.68;;;11.00;99.90;;;;;;5004272;28;20488;-67
2023/11/06 07:18:23;;;;;;;2.03;1.00;;;11.00;99.90;;;;;;5006371;28;20103;-67
2023/11/06 07:20:49;;;;;;;2.92;0.50;;;11.00;99.90;;;;;;5004280;28;20507;-67
2023/11/06 07:23:15;;;;;;;1.42;0.55;;;11.00;99.90;;;;;;5005867;28;20421;-67
2023/11/06 07:25:40;;;;;;;1.08;0.52;;;11.00;99.90;;;;;;5006273;28;20502;-67
2023/11/06 07:28:06;;;;;;;1.27;0.60;;;11.00;99.90;;;;;;5005834;28;20298;-67
2023/11/06 07:30:32;;;;;;;1.70;0.40;;;11.00;99.90;;;;;;5005896;28;20092;-67
2023/11/06 07:32:58;;;;;;;2.10;0.60;;;11.10;99.90;;;;;;5001947;28;20038;-67
2023/11/06 07:35:24;;;;;;;3.35;0.60;;;11.10;99.90;;;;;;5005514;28;20041;-68
2023/11/06 07:37:49;;;;;;;2.08;0.80;;;11.20;99.90;;;;;;5002300;28;20038;-67
2023/11/06 07:40:15;;;;;;;0.85;0.38;;;11.20;99.90;;;;;;5005560;28;20501;-67
2023/11/06 07:42:41;;;;;;;2.35;0.38;;;11.30;99.90;;;;;;5005600;28;20056;-67
2023/11/06 07:45:07;;;;;;;2.15;0.68;;;11.30;99.90;;;;;;5005222;28;20042;-68
2023/11/06 07:47:36;;;;;;;2.20;0.40;;;11.50;99.90;;;;;;5004964;28;20040;-68
2023/11/06 07:50:06;;;;;;;3.30;0.50;;;11.60;99.90;;;;;;5002351;28;20041;-67
2023/11/06 07:52:32;;;;;;;0.30;0.28;;;11.60;99.90;;;;;;5005589;28;20038;-67
2023/11/06 07:54:58;;;;;;;1.73;0.35;;;11.70;99.90;;;;;;5005437;28;20038;-67
2023/11/06 07:57:24;;;;;;;0.65;0.40;;;11.80;99.90;;;;;;5005179;28;20460;-67
2023/11/06 07:59:51;;;;;;;2.47;0.50;;;11.90;99.90;;;;;;5005733;28;20088;-67
2023/11/06 08:02:17;;;;;;;2.22;0.45;;;11.90;99.90;;;;;;5005184;28;20021;-67
2023/11/06 08:04:43;;;;;;;1.58;0.40;;;12.10;99.90;;;;;;5004617;28;20026;-67
2023/11/06 08:07:11;;;;;;;1.08;0.38;;;12.10;99.90;;;;;;5005174;28;20100;-67
2023/11/06 08:09:37;;;;;;;1.83;0.40;;;12.20;99.90;;;;;;4995519;28;20037;-67
2023/11/06 08:12:06;;;;;;;3.03;0.55;;;12.20;99.90;;;;;;5004992;28;20157;-67
2023/11/06 08:14:33;;;;;;;3.50;0.55;;;12.20;99.90;;;;;;4983960;28;20111;-66
2023/11/06 08:16:59;;;;;;;1.95;0.50;;;12.30;99.90;;;;;;5003011;28;20044;-67
2023/11/06 08:19:25;;;;;;;2.25;0.40;;;12.40;99.90;;;;;;5004948;28;20037;-67
2023/11/06 08:21:51;;;;;;;3.88;0.50;;;12.50;99.90;;;;;;5004653;28;20034;-67
2023/11/06 08:24:17;;;;;;;1.48;0.52;;;12.60;99.90;;;;;;5004750;28;20041;-68
2023/11/06 08:26:45;;;;;;;3.47;1.30;;;12.70;99.90;;;;;;5004926;28;20040;-68
2023/11/06 08:29:11;;;;;;;1.08;0.40;;;12.90;99.90;;;;;;5004698;28;20042;-67
2023/11/06 08:31:37;;;;;;;2.95;1.13;;;13.20;99.90;;;;;;5004789;28;20030;-67
2023/11/06 08:34:03;;;;;;;0.75;0.40;;;13.50;99.90;;;;;;5000876;28;20045;-66
2023/11/06 08:36:29;;;;;;;4.40;0.75;;;13.50;99.90;;;;;;5004512;28;20478;-67
2023/11/06 08:38:55;;;;;;;1.40;0.60;;;13.50;99.90;;;;;;5005251;28;20049;-67
2023/11/06 08:41:22;;;;;;;0.40;0.40;;;13.60;99.90;;;;;;5004899;28;20025;-67
2023/11/06 08:43:47;;;;;;;1.65;0.40;;;13.70;99.90;;;;;;5004534;28;20092;-67
2023/11/06 08:46:13;;;;;;;3.72;0.70;;;13.70;99.90;;;;;;5004610;28;20080;-67
2023/11/06 08:48:43;;;;;;;5.93;1.15;;;13.70;99.90;;;;;;5004815;28;20390;-67
2023/11/06 08:51:08;;;;;;;1.55;0.50;;;13.60;99.90;;;;;;5004291;28;20049;-67
2023/11/06 08:53:35;;;;;;;2.78;0.50;;;13.70;99.90;;;;;;5008335;28;20034;-66
2023/11/06 08:56:01;;;;;;;1.23;0.60;;;13.70;99.90;;;;;;5008401;28;20123;-67
2023/11/06 08:58:27;;;;;;;1.30;0.73;;;13.70;99.90;;;;;;5008398;28;20029;-67
2023/11/06 09:00:53;;;;;;;1.40;0.45;;;13.60;99.90;;;;;;5003000;28;20087;-67
2023/11/06 09:03:18;;;;;;;0.40;0.30;;;13.70;99.90;;;;;;5006586;28;20801;-67
2023/11/06 09:05:45;;;;;;;7.15;0.90;;;13.60;99.90;;;;;;5004737;28;20057;-68
2023/11/06 09:08:10;;;;;;;3.13;0.80;;;13.50;99.90;;;;;;5005725;28;20120;-67
2023/11/06 09:10:37;;;;;;;1.85;0.40;;;13.60;99.90;;;;;;5008107;28;20040;-68
2023/11/06 09:13:02;;;;;;;3.13;0.60;;;13.80;99.90;;;;;;5007589;28;20046;-66
2023/11/06 09:15:28;;;;;;;1.02;0.40;;;14.00;99.90;;;;;;5007712;28;20045;-67
2023/11/06 09:17:54;;;;;;;1.98;0.55;;;14.10;99.80;;;;;;5008339;28;20054;-68
2023/11/06 09:20:20;;;;;;;1.65;0.52;;;14.10;99.80;;;;;;5007914;28;20132;-67
2023/11/06 09:22:46;;;;;;;3.10;0.63;;;14.30;99.60;;;;;;5007697;28;20026;-67
2023/11/06 09:25:13;;;;;;;5.25;1.27;;;14.30;99.30;;;;;;5008470;28;20408;-68
2023/11/06 09:27:42;;;;;;;2.13;0.77;;;14.30;99.40;;;;;;5001278;28;20034;-67
2023/11/06 09:30:09;;;;;;;2.72;0.77;;;14.20;99.40;;;;;;5006631;28;20169;-68
2023/11/06 09:32:35;;;;;;;1.02;0.45;;;14.50;99.50;;;;;;5007553;28;20045;-67
2023/11/06 09:35:03;;;;;;;2.22;0.70;;;14.60;98.90;;;;;;5006447;28;20034;-67
2023/11/06 09:37:30;;;;;;;2.45;0.60;;;14.60;98.60;;;;;;5007812;28;20026;-68
2023/11/06 09:39:56;;;;;;;3.70;0.75;;;14.70;98.10;;;;;;5022494;28;20107;-67
2023/11/06 09:42:22;;;;;;;5.65;0.90;;;14.70;98.20;;;;;;5007126;28;20037;-67
2023/11/06 09:44:48;;;;;;;3.78;2.42;;;14.60;98.80;;;;;;5006209;28;20064;-67
2023/11/06 09:47:15;;;;;;;4.78;4.15;;;14.70;98.70;;;;;;5004950;28;20545;-67
2023/11/06 09:50:01;;;;;;;4.47;2.60;;;14.50;98.40;;;;;;5007378;28;20037;-67
2023/11/06 09:52:27;;;;;;;3.77;2.80;;;15.30;98.10;;;;;;5006751;28;20037;-68
2023/11/06 09:54:57;;;;;;;3.58;2.90;;;16.40;96.00;;;;;;5002496;28;20038;-68
2023/11/06 09:57:25;;;;;;;5.03;2.78;;;17.20;95.10;;;;;;5005928;28;20038;-68
2023/11/06 09:59:51;;;;;;;4.78;1.85;;;18.00;92.60;;;;;;5007289;28;20509;-68
2023/11/06 10:02:24;;;;;;;3.10;1.95;;;18.70;91.30;;;;;;5004258;28;20121;-68
2023/11/06 10:04:49;;;;;;;5.20;2.28;;;18.90;90.90;;;;;;5006123;28;20053;-69
2023/11/06 10:07:39;;;;;;;2.97;2.08;;;19.00;88.50;;;;;;5007550;28;20042;-68
2023/11/06 10:10:18;;;;;;;2.67;1.45;;;18.90;87.80;;;;;;5005408;28;20522;-63
2023/11/06 10:12:44;;;;;;;3.55;1.63;;;19.10;87.60;;;;;;5002292;28;20477;-64
2023/11/06 10:15:14;;;;;;;3.47;0.60;;;19.20;85.80;;;;;;5002112;28;20044;-63
2023/11/06 10:17:40;;;;;;;3.35;0.90;;;19.20;84.30;;;;;;5001681;28;20037;-63
2023/11/06 10:20:16;;;;;;;1.00;0.88;;;20.00;84.60;;;;;;4998142;28;20472;-63
2023/11/06 10:22:55;;;;;;;2.75;1.15;;;21.60;79.50;;;;;;5001098;28;20025;-63
2023/11/06 10:25:30;;;;;;;2.03;1.40;;;21.20;74.00;;;;;;5000261;28;20485;-64
2023/11/06 10:27:57;;;;;;;5.47;2.33;;;20.00;79.20;;;;;;4998684;28;20046;-64
2023/11/06 10:30:24;;;;;;;7.40;1.77;;;19.50;81.60;;;;;;5000275;28;20277;-64
2023/11/06 10:32:50;;;;;;;3.00;1.20;;;19.00;81.00;;;;;;5002197;28;20038;-64
2023/11/06 10:35:17;;;;;;;2.80;1.15;;;18.90;83.20;;;;;;4999174;28;20113;-64
2023/11/06 10:37:45;;;;;;;1.55;0.80;;;18.60;83.10;;;;;;5001252;28;20061;-63
2023/11/06 10:40:13;;;;;;;4.03;1.65;;;18.80;82.40;;;;;;4999918;28;20045;-64
2023/11/06 10:42:47;;;;;;;6.65;1.85;;;18.60;81.80;;;;;;5001120;28;20343;-63
2023/11/06 10:45:17;;;;;;;4.68;1.02;;;18.60;84.90;;;;;;4998626;28;20037;-64
2023/11/06 10:47:49;;;;;;;2.83;0.93;;;18.60;84.20;;;;;;5001506;28;20033;-64
2023/11/06 10:50:23;;;;;;;5.65;1.50;;;18.20;84.20;;;;;;5012611;28;20584;-64
2023/11/06 10:52:54;;;;;;;2.67;1.50;;;17.80;86.40;;;;;;5002944;28;20038;-64
2023/11/06 10:55:25;;;;;;;5.63;1.80;;;17.30;86.60;;;;;;4998793;28;20045;-64
2023/11/06 10:57:52;;;;;;;4.40;1.50;;;16.90;88.60;;;;;;4999932;28;20030;-64
2023/11/06 11:00:20;;;;;;;3.63;1.30;;;16.50;90.00;;;;;;4999389;28;20042;-64
2023/11/06 11:02:49;;;;;;;2.13;0.98;;;16.20;90.60;;;;;;5000368;28;20058;-64
2023/11/06 11:05:17;;;;;;;4.15;1.80;;;16.00;91.30;;;;;;4998106;28;20046;-64
2023/11/06 11:07:46;;;;;;;1.77;1.10;;;15.90;91.10;;;;;;5001055;28;20474;-64
2023/11/06 11:10:17;;;;;;;1.92;0.90;;;15.80;91.50;;;;;;4997783;28;20026;-64
2023/11/06 11:12:48;;;;;;;2.28;1.40;;;15.70;92.10;;;;;;5000341;28;20124;-64
2023/11/06 11:15:14;;;;;;;5.03;2.40;;;15.70;91.40;;;;;;4997912;28;20042;-64
2023/11/06 11:17:55;;;;;;;5.18;2.95;;;15.50;91.90;;;;;;5003702;28;20040;-64
2023/11/06 11:20:21;;;;;;;4.65;2.30;;;15.20;92.70;;;;;;4998973;28;20049;-64
2023/11/06 11:23:07;;;;;;;4.40;2.10;;;15.10;93.40;;;;;;5001945;28;20018;-64
2023/11/06 11:26:04;;;;;;;5.38;2.40;;;15.00;93.20;;;;;;5001973;28;20049;-64
2023/11/06 11:28:59;;;;;;;4.03;2.42;;;14.90;93.70;;;;;;4999470;28;20026;-64
2023/11/06 11:31:43;;;;;;;5.57;4.13;;;14.80;94.00;;;;;;5001910;28;20030;-64
2023/11/06 11:34:25;;;;;;;1.88;0.80;;;14.90;94.00;;;;;;4995065;28;20042;-64
2023/11/06 11:36:50;;;;;;;2.50;0.50;;;15.20;94.10;;;;;;5002307;28;20049;-64
2023/11/06 11:39:17;;;;;;;1.75;1.30;;;15.30;93.60;;;;;;4996327;28;20034;-64
2023/11/06 11:42:04;;;;;;;2.97;1.42;;;15.50;93.40;;;;;;5002680;28;20030;-64
2023/11/06 11:44:30;;;;;;;2.60;1.40;;;15.50;93.20;;;;;;4997624;28;20026;-63
2023/11/06 11:47:00;;;;;;;7.10;3.15;;;15.50;93.20;;;;;;5001508;28;20034;-63
2023/11/06 11:49:43;;;;;;;7.78;4.60;;;15.50;93.20;;;;;;4999186;28;20056;-64
2023/11/06 11:52:12;;;;;;;8.57;2.78;;;15.40;93.10;;;;;;4998765;28;20804;-64
2023/11/06 11:54:38;;;;;;;9.45;3.35;;;15.40;93.70;;;;;;4998234;28;20034;-64
2023/11/06 11:57:08;;;;;;;9.63;3.78;;;15.40;93.70;;;;;;5000350;28;20129;-64
2023/11/06 11:59:42;;;;;;;6.00;2.95;;;15.30;92.90;;;;;;4997194;28;20117;-64
2023/11/06 12:02:31;;;;;;;8.00;3.90;;;15.30;93.60;;;;;;4998743;28;20058;-64
2023/11/06 12:04:59;;;;;;;6.80;3.60;;;15.20;93.80;;;;;;4999671;28;20705;-64
2023/11/06 12:07:28;;;;;;;4.60;2.08;;;15.20;93.80;;;;;;4999407;28;20577;-64
2023/11/06 12:09:55;;;;;;;5.15;2.15;;;15.00;93.40;;;;;;4997511;28;20034;-63
2023/11/06 12:12:29;;;;;;;2.75;1.25;;;14.90;93.30;;;;;;4999193;28;20609;-64
2023/11/06 12:15:00;;;;;;;3.55;1.98;;;14.80;93.80;;;;;;5012504;28;20529;-64
2023/11/06 12:17:28;;;;;;;4.32;3.03;;;14.80;94.40;;;;;;5001793;28;20124;-67
2023/11/06 12:19:55;;;;;;;4.53;1.35;;;14.80;94.70;;;;;;5004613;28;20080;-67
2023/11/06 12:22:22;;;;;;;3.25;1.13;;;14.90;94.80;;;;;;5003787;28;20041;-68
2023/11/06 12:24:52;;;;;;;4.45;1.50;;;14.90;94.60;;;;;;5004230;28;20092;-67
2023/11/06 12:27:20;;;;;;;2.92;0.57;;;14.80;93.60;;;;;;5004006;28;20068;-67
2023/11/06 12:29:47;;;;;;;4.57;2.30;;;14.80;93.90;;;;;;5004861;28;20175;-67
2023/11/06 12:32:23;;;;;;;4.43;1.90;;;14.80;93.80;;;;;;5003547;28;20120;-67
2023/11/06 12:35:06;;;;;;;2.45;1.30;;;14.80;94.30;;;;;;5003895;28;20506;-67
2023/11/06 12:37:58;;;;;;;1.17;0.68;;;14.80;93.70;;;;;;5002670;28;20034;-67
2023/11/06 12:40:28;;;;;;;1.00;0.60;;;14.70;94.20;;;;;;5003867;28;20693;-67
2023/11/06 12:43:02;;;;;;;2.28;1.33;;;14.40;94.40;;;;;;5004351;28;20030;-67
2023/11/06 12:45:31;;;;;;;2.30;0.80;;;14.20;95.30;;;;;;5004310;28;20549;-67
2023/11/06 12:47:59;;;;;;;1.10;0.40;;;14.20;95.20;;;;;;4994676;28;20045;-67
2023/11/06 12:50:28;;;;;;;2.50;0.60;;;14.30;95.40;;;;;;5004514;28;20382;-69